createdAt,value
2018-03-04T00:00:52.271Z,-0.80
2018-03-04T00:03:55.745Z,-0.70
2018-03-04T00:06:57.349Z,-0.70
2018-03-04T00:10:00.660Z,-0.60
2018-03-04T00:13:05.768Z,-0.50
2018-03-04T00:16:07.538Z,-0.50
2018-03-04T00:19:09.317Z,-0.50
2018-03-04T00:22:12.885Z,-0.50
2018-03-04T00:25:15.559Z,-0.50
2018-03-04T00:28:18.290Z,-0.50
2018-03-04T00:31:20.055Z,-0.50
2018-03-04T00:34:23.775Z,-0.40
2018-03-04T00:37:25.532Z,-0.50
2018-03-04T00:40:27.362Z,-0.40
2018-03-04T00:43:31.893Z,-0.40
2018-03-04T00:46:34.561Z,-0.50
2018-03-04T00:49:37.325Z,-0.40
2018-03-04T00:52:39.072Z,-0.40
2018-03-04T00:55:40.328Z,0.00
2018-03-04T00:58:41.530Z,0.00
2018-03-04T01:01:42.744Z,0.00
2018-03-04T01:04:43.964Z,0.10
2018-03-04T01:07:45.932Z,0.50
2018-03-04T01:10:47.181Z,0.50
2018-03-04T01:13:48.382Z,0.60
2018-03-04T01:16:49.595Z,0.70
2018-03-04T01:19:50.821Z,0.90
2018-03-04T01:22:52.009Z,0.90
2018-03-04T01:25:53.220Z,1.00
2018-03-04T01:28:55.200Z,1.30
2018-03-04T01:31:57.164Z,1.40
2018-03-04T01:34:58.353Z,1.40
2018-03-04T01:37:59.577Z,1.40
2018-03-04T01:41:00.820Z,1.50
2018-03-04T01:44:02.065Z,1.50
2018-03-04T01:47:03.303Z,1.40
2018-03-04T01:50:04.545Z,1.40
2018-03-04T01:53:06.495Z,1.50
2018-03-04T01:56:07.693Z,1.50
2018-03-04T01:59:09.665Z,1.60
2018-03-04T02:02:11.624Z,1.50
2018-03-04T02:05:12.949Z,1.50
2018-03-04T02:08:14.202Z,1.60
2018-03-04T02:11:15.406Z,1.60
2018-03-04T02:14:16.613Z,1.50
2018-03-04T02:17:17.825Z,1.60
2018-03-04T02:20:19.048Z,1.50
2018-03-04T02:23:20.273Z,1.60
2018-03-04T02:26:21.495Z,1.60
2018-03-04T02:29:22.720Z,1.60
2018-03-04T02:32:24.651Z,1.60
2018-03-04T02:35:25.874Z,1.60
2018-03-04T02:38:27.104Z,1.50
2018-03-04T02:41:29.045Z,1.50
2018-03-04T02:44:30.304Z,1.50
2018-03-04T02:47:31.505Z,1.70
2018-03-04T02:50:32.705Z,1.50
2018-03-04T02:53:33.917Z,1.60
2018-03-04T02:56:35.113Z,1.50
2018-03-04T02:59:37.058Z,1.60
2018-03-04T03:02:38.381Z,1.60
2018-03-04T03:05:39.593Z,1.60
2018-03-04T03:08:40.840Z,1.60
2018-03-04T03:11:42.059Z,1.60
2018-03-04T03:14:43.286Z,1.60
2018-03-04T03:17:45.252Z,1.70
2018-03-04T03:20:46.453Z,1.80
2018-03-04T03:23:47.665Z,1.70
2018-03-04T03:26:48.850Z,1.60
2018-03-04T03:29:50.069Z,1.60
2018-03-04T03:32:51.288Z,1.60
2018-03-04T03:35:53.240Z,1.60
2018-03-04T03:38:54.454Z,1.50
2018-03-04T03:41:55.670Z,1.70
2018-03-04T03:44:56.892Z,1.70
2018-03-04T03:47:58.089Z,1.70
2018-03-04T03:50:59.290Z,1.70
2018-03-04T03:54:00.518Z,1.70
2018-03-04T03:57:01.841Z,1.70
2018-03-04T04:00:03.079Z,1.70
2018-03-04T04:03:04.288Z,1.80
2018-03-04T04:06:05.489Z,1.80
2018-03-04T04:09:07.480Z,1.80
2018-03-04T04:12:09.438Z,1.80
2018-03-04T04:15:10.650Z,1.70
2018-03-04T04:18:11.873Z,1.80
2018-03-04T04:21:13.813Z,1.90
2018-03-04T04:24:15.101Z,1.90
2018-03-04T04:27:16.332Z,2.00
2018-03-04T04:30:17.588Z,1.90
2018-03-04T04:33:18.815Z,2.00
2018-03-04T04:36:20.751Z,1.90
2018-03-04T04:39:21.987Z,1.90
2018-03-04T04:42:23.189Z,1.90
2018-03-04T04:45:24.408Z,1.90
2018-03-04T04:48:25.611Z,1.90
2018-03-04T04:51:26.805Z,1.90
2018-03-04T04:54:28.753Z,1.80
2018-03-04T04:57:29.968Z,1.80
2018-03-04T05:00:31.221Z,1.80
2018-03-04T05:03:32.448Z,1.70
2018-03-04T05:06:33.655Z,1.70
2018-03-04T05:09:34.862Z,1.70
2018-03-04T05:12:36.076Z,1.70
2018-03-04T05:15:37.305Z,1.80
2018-03-04T05:18:39.279Z,1.70
2018-03-04T05:21:40.469Z,1.70
2018-03-04T05:24:41.698Z,1.80
2018-03-04T05:27:42.921Z,2.00
2018-03-04T05:30:44.160Z,2.10
2018-03-04T05:33:45.384Z,2.10
2018-03-04T05:36:46.579Z,2.10
2018-03-04T05:39:47.785Z,2.20
2018-03-04T05:42:49.024Z,2.20
2018-03-04T05:45:50.245Z,2.30
2018-03-04T05:48:52.204Z,2.30
2018-03-04T05:51:53.422Z,2.20
2018-03-04T05:54:54.673Z,2.20
2018-03-04T05:57:55.890Z,2.20
2018-03-04T06:00:57.114Z,2.30
2018-03-04T06:03:59.160Z,2.30
2018-03-04T06:07:01.113Z,2.30
2018-03-04T06:10:02.684Z,2.30
2018-03-04T06:13:03.936Z,2.40
2018-03-04T06:16:05.158Z,2.40
2018-03-04T06:19:06.412Z,2.40
2018-03-04T06:22:07.636Z,2.30
2018-03-04T06:25:08.848Z,2.40
2018-03-04T06:28:10.045Z,2.40
2018-03-04T06:31:11.260Z,2.40
2018-03-04T06:34:13.220Z,2.40
2018-03-04T06:37:15.185Z,2.40
2018-03-04T06:40:16.408Z,2.40
2018-03-04T06:43:17.651Z,2.40
2018-03-04T06:46:18.891Z,2.50
2018-03-04T06:49:20.860Z,2.50
2018-03-04T06:52:22.107Z,2.50
2018-03-04T06:55:23.336Z,2.60
2018-03-04T06:58:24.561Z,2.60
2018-03-04T07:01:26.550Z,2.70
2018-03-04T07:04:28.532Z,2.60
2018-03-04T07:07:30.505Z,2.60
2018-03-04T07:10:32.528Z,2.60
2018-03-04T07:13:34.460Z,2.70
2018-03-04T07:16:36.419Z,2.60
2018-03-04T07:19:37.665Z,2.60
2018-03-04T07:22:38.888Z,2.60
2018-03-04T07:25:40.112Z,2.70
2018-03-04T07:28:41.507Z,2.70
2018-03-04T07:31:43.452Z,2.80
2018-03-04T07:34:44.669Z,2.80
2018-03-04T07:37:45.884Z,2.80
2018-03-04T07:40:47.116Z,2.80
2018-03-04T07:43:48.357Z,2.80
2018-03-04T07:46:49.587Z,2.90
2018-03-04T07:49:51.541Z,3.00
2018-03-04T07:52:52.765Z,3.00
2018-03-04T07:55:53.964Z,3.10
2018-03-04T07:58:55.214Z,3.00
2018-03-04T08:01:56.418Z,3.10
2018-03-04T08:04:58.374Z,3.10
2018-03-04T08:07:59.604Z,3.10
2018-03-04T08:11:00.827Z,3.20
2018-03-04T08:14:02.785Z,3.30
2018-03-04T08:17:04.037Z,3.20
2018-03-04T08:20:05.254Z,3.30
2018-03-04T08:23:06.464Z,3.40
2018-03-04T08:29:55.016Z,3.40
2018-03-04T08:32:56.285Z,3.40
2018-03-04T08:35:57.517Z,3.40
2018-03-04T08:38:59.484Z,3.80
2018-03-04T08:42:00.700Z,3.70
2018-03-04T08:45:01.918Z,3.90
2018-03-04T08:48:03.148Z,4.00
2018-03-04T08:51:04.361Z,4.00
2018-03-04T08:54:06.313Z,4.20
2018-03-04T08:57:07.497Z,4.10
2018-03-04T09:00:09.461Z,4.20
2018-03-04T09:03:10.677Z,4.20
2018-03-04T09:06:11.877Z,4.40
2018-03-04T09:09:13.073Z,4.30
2018-03-04T09:12:14.372Z,4.20
2018-03-04T09:15:15.589Z,4.40
2018-03-04T09:18:17.573Z,4.30
2018-03-04T09:21:19.554Z,4.40
2018-03-04T09:24:21.512Z,4.50
2018-03-04T09:27:22.716Z,4.60
2018-03-04T09:30:23.965Z,4.70
2018-03-04T09:33:25.191Z,4.90
2018-03-04T09:36:26.509Z,4.80
2018-03-04T09:39:27.744Z,4.80
2018-03-04T09:42:29.782Z,5.00
2018-03-04T09:45:31.040Z,5.00
2018-03-04T09:48:32.264Z,5.10
2018-03-04T09:51:33.477Z,5.40
2018-03-04T09:54:34.678Z,5.50
2018-03-04T09:57:36.635Z,5.70
2018-03-04T10:00:37.885Z,5.70
2018-03-04T10:03:39.110Z,5.70
2018-03-04T10:06:40.344Z,5.70
2018-03-04T10:09:42.328Z,6.20
2018-03-04T10:12:44.265Z,6.40
2018-03-04T10:15:45.510Z,6.30
2018-03-04T10:18:46.739Z,6.50
2018-03-04T10:21:47.950Z,6.60
2018-03-04T10:24:49.159Z,6.60
2018-03-04T10:27:50.385Z,6.60
2018-03-04T10:30:51.694Z,6.90
2018-03-04T10:33:52.893Z,7.30
2018-03-04T10:36:54.116Z,9.10
2018-03-04T10:39:55.321Z,8.80
2018-03-04T10:42:56.556Z,8.00
2018-03-04T10:45:57.799Z,7.30
2018-03-04T10:48:59.013Z,7.20
2018-03-04T10:52:00.237Z,7.20
2018-03-04T10:55:01.480Z,7.30
2018-03-04T10:58:03.506Z,8.10
2018-03-04T11:01:09.498Z,7.90
2018-03-04T11:04:10.726Z,7.90
2018-03-04T11:07:11.935Z,8.60
2018-03-04T11:10:13.172Z,8.80
2018-03-04T11:13:14.396Z,8.60
2018-03-04T11:16:15.654Z,9.00
2018-03-04T11:19:16.922Z,9.20
2018-03-04T11:22:18.114Z,9.20
2018-03-04T11:25:19.340Z,9.30
2018-03-04T11:28:20.560Z,9.00
2018-03-04T11:31:21.762Z,9.60
2018-03-04T11:34:24.600Z,9.70
2018-03-04T11:37:25.821Z,9.60
2018-03-04T11:40:27.754Z,9.00
2018-03-04T11:43:28.973Z,8.90
2018-03-04T11:46:30.157Z,9.20
2018-03-04T11:49:31.367Z,9.70
2018-03-04T11:52:32.569Z,9.70
2018-03-04T11:55:33.769Z,10.00
2018-03-04T11:58:35.026Z,9.60
2018-03-04T12:01:36.239Z,9.40
2018-03-04T12:04:37.445Z,9.20
2018-03-04T12:07:38.649Z,9.20
2018-03-04T12:10:40.677Z,9.80
2018-03-04T12:13:41.878Z,9.70
2018-03-04T12:16:43.076Z,9.80
2018-03-04T12:19:44.281Z,10.20
2018-03-04T12:22:45.466Z,10.20
2018-03-04T12:25:46.684Z,10.20
2018-03-04T12:28:47.881Z,10.20
2018-03-04T12:31:49.078Z,10.30
2018-03-04T12:34:50.308Z,10.50
2018-03-04T12:37:51.539Z,10.60
2018-03-04T12:40:52.829Z,11.00
2018-03-04T12:43:54.033Z,10.90
2018-03-04T12:46:55.229Z,10.70
2018-03-04T12:49:56.444Z,10.80
2018-03-04T12:52:58.373Z,11.10
2018-03-04T12:55:59.606Z,11.10
2018-03-04T12:59:00.898Z,11.20
2018-03-04T13:02:02.847Z,12.00
2018-03-04T13:05:04.094Z,11.90
2018-03-04T13:08:06.140Z,11.60
2018-03-04T13:11:07.301Z,11.60
2018-03-04T13:14:08.506Z,11.80
2018-03-04T13:17:09.724Z,12.00
2018-03-04T13:20:10.959Z,12.10
2018-03-04T13:23:12.167Z,11.90
2018-03-04T13:26:13.398Z,12.10
2018-03-04T13:29:14.594Z,12.30
2018-03-04T13:32:16.541Z,12.10
2018-03-04T13:35:17.776Z,12.00
2018-03-04T13:38:18.986Z,12.00
2018-03-04T13:41:20.208Z,12.40
2018-03-04T13:44:21.445Z,12.60
2018-03-04T13:47:22.689Z,12.60
2018-03-04T13:50:24.684Z,12.60
2018-03-04T13:53:25.901Z,12.60
2018-03-04T13:56:27.099Z,12.60
2018-03-04T13:59:29.095Z,11.90
2018-03-04T14:02:30.325Z,11.90
2018-03-04T14:05:31.569Z,11.50
2018-03-04T14:08:32.803Z,11.40
2018-03-04T14:11:34.003Z,11.20
2018-03-04T14:14:35.262Z,11.20
2018-03-04T14:17:36.469Z,11.30
2018-03-04T14:20:37.684Z,11.30
2018-03-04T14:23:38.916Z,11.30
2018-03-04T14:26:40.142Z,11.20
2018-03-04T14:29:42.104Z,11.10
2018-03-04T14:32:43.322Z,11.10
2018-03-04T14:35:44.526Z,11.20
2018-03-04T14:38:45.737Z,11.20
2018-03-04T14:41:46.973Z,11.10
2018-03-04T14:44:48.917Z,11.00
2018-03-04T14:47:50.113Z,11.00
2018-03-04T14:50:52.077Z,10.80
2018-03-04T14:53:54.048Z,10.70
2018-03-04T14:56:55.269Z,10.70
2018-03-04T14:59:56.478Z,10.60
2018-03-04T15:02:57.678Z,10.50
2018-03-04T15:05:58.894Z,10.40
2018-03-04T15:09:00.155Z,10.30
2018-03-04T15:12:01.390Z,10.20
2018-03-04T15:15:02.621Z,10.10
2018-03-04T15:18:03.868Z,10.00
2018-03-04T15:21:05.805Z,10.00
2018-03-04T15:24:07.047Z,10.00
2018-03-04T15:27:08.237Z,10.00
2018-03-04T15:30:09.453Z,9.80
2018-03-04T15:33:10.709Z,9.80
2018-03-04T15:36:11.933Z,9.70
2018-03-04T15:39:13.161Z,9.70
2018-03-04T15:42:14.400Z,9.70
2018-03-04T15:45:15.613Z,9.70
2018-03-04T15:48:16.833Z,9.60
2018-03-04T15:51:18.051Z,9.50
2018-03-04T15:54:19.263Z,9.50
2018-03-04T15:57:20.482Z,9.50
2018-03-04T16:00:21.689Z,9.40
2018-03-04T16:03:22.901Z,9.30
2018-03-04T16:06:24.109Z,9.30
2018-03-04T16:09:25.406Z,9.30
2018-03-04T16:12:26.658Z,9.20
2018-03-04T16:15:28.630Z,9.10
2018-03-04T16:18:29.856Z,9.10
2018-03-04T16:21:31.797Z,8.90
2018-03-04T16:24:33.106Z,8.90
2018-03-04T16:27:34.331Z,8.90
2018-03-04T16:30:35.534Z,8.80
2018-03-04T16:33:36.773Z,8.70
2018-03-04T16:36:38.721Z,8.70
2018-03-04T16:39:39.957Z,8.60
2018-03-04T16:42:41.201Z,8.70
2018-03-04T16:45:42.454Z,8.60
2018-03-04T16:48:44.429Z,8.60
2018-03-04T16:51:46.353Z,8.60
2018-03-04T16:54:47.570Z,8.60
2018-03-04T16:57:49.515Z,8.50
2018-03-04T17:00:50.753Z,8.50
2018-03-04T17:03:51.967Z,8.50
2018-03-04T17:06:53.909Z,8.30
2018-03-04T17:09:55.881Z,8.30
2018-03-04T17:12:57.108Z,8.20
2018-03-04T17:15:58.337Z,8.30
2018-03-04T17:18:59.547Z,8.30
2018-03-04T17:22:00.785Z,8.10
2018-03-04T17:25:02.826Z,8.20
2018-03-04T17:28:04.780Z,8.20
2018-03-04T17:31:05.998Z,8.20
2018-03-04T17:34:07.957Z,8.30
2018-03-04T17:37:09.199Z,8.20
2018-03-04T17:40:10.466Z,8.20
2018-03-04T17:43:11.686Z,8.20
2018-03-04T17:46:12.894Z,8.30
2018-03-04T17:49:14.113Z,8.30
2018-03-04T17:52:15.328Z,8.30
2018-03-04T17:55:16.537Z,8.20
2018-03-04T17:58:17.734Z,8.30
2018-03-04T18:01:19.689Z,8.30
2018-03-04T18:04:20.890Z,8.20
2018-03-04T18:07:22.092Z,8.20
2018-03-04T18:10:24.039Z,8.20
2018-03-04T18:13:25.306Z,8.20
2018-03-04T18:16:26.525Z,8.20
2018-03-04T18:19:27.762Z,8.30
2018-03-04T18:22:35.956Z,8.20
2018-03-04T18:25:37.177Z,8.30
2018-03-04T18:28:38.409Z,8.20
2018-03-04T18:31:40.365Z,8.20
2018-03-04T18:34:41.594Z,8.20
2018-03-04T18:37:42.811Z,8.20
2018-03-04T18:40:44.773Z,8.10
2018-03-04T18:43:46.053Z,8.20
2018-03-04T18:46:47.213Z,8.10
2018-03-04T18:49:49.209Z,8.00
2018-03-04T18:52:50.424Z,8.00
2018-03-04T18:55:51.688Z,7.80
2018-03-04T18:58:52.932Z,7.70
2018-03-04T19:01:54.140Z,7.60
2018-03-04T19:04:56.183Z,7.50
2018-03-04T19:07:57.382Z,7.50
2018-03-04T19:10:59.344Z,7.40
2018-03-04T19:14:00.572Z,7.40
2018-03-04T19:17:01.765Z,7.30
2018-03-04T19:20:03.016Z,7.30
2018-03-04T19:23:04.244Z,7.30
2018-03-04T19:26:05.476Z,7.30
2018-03-04T19:29:07.446Z,7.30
2018-03-04T19:32:08.717Z,7.30
2018-03-04T19:35:10.687Z,7.50
2018-03-04T19:38:11.934Z,7.40
2018-03-04T19:41:13.164Z,7.50
2018-03-04T19:44:14.397Z,7.50
2018-03-04T19:47:16.385Z,7.60
2018-03-04T19:50:17.616Z,7.60
2018-03-04T19:53:18.846Z,7.60
2018-03-04T19:56:20.049Z,7.70
2018-03-04T19:59:21.276Z,7.70
2018-03-04T20:02:22.492Z,7.70
2018-03-04T20:05:23.743Z,7.60
2018-03-04T20:08:25.713Z,7.70
2018-03-04T20:11:26.909Z,7.60
2018-03-04T20:14:28.128Z,7.70
2018-03-04T20:17:29.329Z,7.60
2018-03-04T20:20:30.580Z,7.50
2018-03-04T20:23:32.559Z,7.40
2018-03-04T20:26:34.516Z,7.30
2018-03-04T20:29:35.765Z,7.30
2018-03-04T20:32:36.977Z,7.40
2018-03-04T20:35:38.205Z,7.50
2018-03-04T20:38:39.411Z,7.50
2018-03-04T20:41:40.640Z,7.70
2018-03-04T20:44:42.597Z,7.80
2018-03-04T20:47:43.793Z,7.80
2018-03-04T20:50:46.307Z,7.70
2018-03-04T20:53:47.944Z,7.70
2018-03-04T20:56:49.198Z,7.80
2018-03-04T20:59:51.405Z,7.70
2018-03-04T21:02:53.913Z,7.70
2018-03-04T21:05:55.162Z,7.60
2018-03-04T21:08:57.573Z,7.70
2018-03-04T21:11:59.303Z,7.60
2018-03-04T21:15:01.321Z,7.70
2018-03-04T21:18:02.614Z,7.80
2018-03-04T21:21:03.877Z,7.80
2018-03-04T21:24:05.224Z,7.80
2018-03-04T21:27:06.453Z,7.70
2018-03-04T21:30:08.766Z,7.80
2018-03-04T21:33:10.590Z,7.80
2018-03-04T21:36:13.242Z,8.00
2018-03-04T21:39:14.486Z,7.90
2018-03-04T21:42:16.489Z,8.10
2018-03-04T21:45:19.713Z,8.10
2018-03-04T21:48:21.319Z,8.20
2018-03-04T21:51:23.954Z,8.20
2018-03-04T21:54:25.235Z,8.10
2018-03-04T21:57:26.468Z,8.20
2018-03-04T22:00:28.482Z,8.10
2018-03-04T22:03:30.408Z,8.10
2018-03-04T22:06:31.680Z,8.20
2018-03-04T22:09:33.948Z,8.20
2018-03-04T22:12:35.593Z,8.20
2018-03-04T22:15:37.090Z,8.20
2018-03-04T22:18:39.262Z,8.10
2018-03-04T22:21:40.585Z,8.20
2018-03-04T22:24:41.865Z,8.30
2018-03-04T22:27:43.303Z,8.30
2018-03-04T22:30:44.757Z,8.20
2018-03-04T22:33:46.723Z,9.70
2018-03-04T22:36:47.945Z,9.70
2018-03-04T22:39:49.185Z,9.00
2018-03-04T22:42:50.828Z,8.70
2018-03-04T22:45:53.188Z,8.40
2018-03-04T22:48:54.788Z,8.30
2018-03-04T22:51:57.414Z,8.40
2018-03-04T22:54:58.714Z,8.30
2018-03-04T22:57:59.978Z,8.30
2018-03-04T23:01:01.235Z,8.20
2018-03-04T23:04:02.501Z,8.30
2018-03-04T23:07:03.757Z,8.20
2018-03-04T23:10:04.996Z,8.20
2018-03-04T23:13:06.248Z,8.20
2018-03-04T23:16:07.468Z,8.20
2018-03-04T23:19:08.699Z,8.10
2018-03-04T23:22:09.954Z,8.20
2018-03-04T23:25:11.747Z,8.20
2018-03-04T23:28:13.005Z,8.10
2018-03-04T23:31:14.236Z,8.10
2018-03-04T23:34:16.219Z,8.20
2018-03-04T23:37:17.487Z,8.10
2018-03-04T23:40:18.753Z,8.10
2018-03-04T23:43:19.988Z,8.10
2018-03-04T23:46:21.955Z,8.10
2018-03-04T23:49:23.184Z,8.10
2018-03-04T23:52:24.428Z,8.10
2018-03-04T23:55:25.672Z,8.10
2018-03-04T23:58:26.873Z,8.10
